Time;durP1;ratioP1;P1;durP2;ratioP2;P2;SDS_P1;SDS_P2;PMS_P1;PMS_P2;Temp;Humidity;BMP_temperature;BMP_pressure;BME280_temperature;BME280_humidity;BME280_pressure;Samples;Min_cycle;Max_cycle;Signal;HPM_P1;HPM_P2
2022/01/27 00:01:34;;;;;;;35.80;18.20;;;4.50;99.90;;;;;;5059605;28;20200;-65
2022/01/27 00:04:12;;;;;;;37.03;17.70;;;4.60;99.90;;;;;;5060245;28;20196;-65
2022/01/27 00:06:41;;;;;;;38.27;19.63;;;4.60;99.90;;;;;;5064169;28;20705;-64
2022/01/27 00:09:21;;;;;;;38.37;17.60;;;4.50;99.90;;;;;;5065949;28;20249;-65
2022/01/27 00:11:52;;;;;;;39.20;18.47;;;4.60;99.90;;;;;;5055914;28;20251;-65
2022/01/27 00:14:21;;;;;;;35.73;18.23;;;4.60;99.90;;;;;;5056127;28;20204;-65
2022/01/27 00:16:55;;;;;;;38.77;17.67;;;4.70;99.90;;;;;;5057032;28;20863;-65
2022/01/27 00:19:24;;;;;;;40.90;17.40;;;4.70;99.90;;;;;;5063263;28;20192;-65
2022/01/27 00:21:52;;;;;;;37.90;18.07;;;4.70;99.90;;;;;;5056081;28;20200;-65
2022/01/27 00:24:20;;;;;;;35.80;17.90;;;4.70;99.90;;;;;;5064659;28;20253;-65
2022/01/27 00:26:53;;;;;;;36.47;18.63;;;4.70;99.90;;;;;;5058950;28;20216;-65
2022/01/27 00:29:21;;;;;;;32.87;17.03;;;4.70;99.90;;;;;;5062239;28;20207;-65
2022/01/27 00:31:50;;;;;;;35.20;18.37;;;4.70;99.90;;;;;;5059554;28;20621;-65
2022/01/27 00:34:18;;;;;;;36.60;18.20;;;4.80;99.90;;;;;;5054766;28;20612;-65
2022/01/27 00:36:46;;;;;;;37.33;18.57;;;4.70;99.90;;;;;;5065051;28;20274;-65
2022/01/27 00:39:15;;;;;;;39.87;19.60;;;4.70;99.90;;;;;;5066805;28;20317;-65
2022/01/27 00:41:43;;;;;;;40.07;19.80;;;4.60;99.90;;;;;;5062612;28;20189;-65
2022/01/27 00:44:14;;;;;;;39.27;18.67;;;4.50;99.90;;;;;;5063541;28;20208;-65
2022/01/27 00:46:43;;;;;;;39.90;20.13;;;4.50;99.90;;;;;;5064546;28;20208;-65
2022/01/27 00:49:11;;;;;;;41.47;20.27;;;4.50;99.90;;;;;;5057753;28;20214;-65
2022/01/27 00:51:44;;;;;;;40.00;20.40;;;4.40;99.90;;;;;;5056167;28;20212;-65
2022/01/27 00:54:18;;;;;;;40.20;20.43;;;4.40;99.90;;;;;;5065213;28;20539;-65
2022/01/27 00:56:52;;;;;;;48.57;21.20;;;4.40;99.90;;;;;;5060065;28;20263;-65
2022/01/27 00:59:34;;;;;;;48.10;21.43;;;4.30;99.90;;;;;;5063300;28;20341;-65
2022/01/27 01:02:12;;;;;;;43.47;20.43;;;4.30;99.90;;;;;;5056021;28;20713;-65
2022/01/27 01:04:46;;;;;;;47.33;20.97;;;4.30;99.90;;;;;;5055694;28;20188;-65
2022/01/27 01:07:15;;;;;;;42.10;19.53;;;4.20;99.90;;;;;;5060268;28;20200;-65
2022/01/27 01:15:21;;;;;;;48.53;20.73;;;4.10;99.90;;;;;;5063482;28;20234;-65
2022/01/27 01:18:00;;;;;;;46.10;20.90;;;4.10;99.90;;;;;;5055066;28;20201;-65
2022/01/27 01:31:44;;;;;;;48.33;19.50;;;4.10;99.90;;;;;;5062056;28;20632;-65
2022/01/27 01:34:14;;;;;;;48.43;21.23;;;4.10;99.90;;;;;;5062119;28;20202;-65
2022/01/27 01:36:52;;;;;;;45.00;20.10;;;4.10;99.90;;;;;;5064708;28;20200;-65
2022/01/27 01:39:21;;;;;;;48.67;20.77;;;4.10;99.90;;;;;;5059751;28;20198;-65
2022/01/27 01:41:49;;;;;;;51.77;21.07;;;4.10;99.90;;;;;;5058480;28;20244;-65
2022/01/27 01:44:18;;;;;;;50.70;21.53;;;4.10;99.90;;;;;;5064920;28;20253;-65
2022/01/27 01:46:48;;;;;;;53.57;21.53;;;4.10;99.90;;;;;;5057073;28;20235;-65
2022/01/27 01:49:17;;;;;;;50.23;21.27;;;4.10;99.90;;;;;;5058408;28;20748;-66
2022/01/27 01:51:45;;;;;;;49.40;21.53;;;4.00;99.90;;;;;;5057072;28;20196;-65
2022/01/27 01:54:14;;;;;;;44.23;20.60;;;4.00;99.90;;;;;;5061598;28;20291;-65
2022/01/27 01:56:44;;;;;;;44.77;20.13;;;4.10;99.90;;;;;;5062758;28;20202;-65
2022/01/27 01:59:13;;;;;;;41.37;19.93;;;4.10;99.90;;;;;;5050961;28;20196;-65
2022/01/27 02:01:43;;;;;;;50.50;21.00;;;4.10;99.90;;;;;;5043446;28;20295;-65
2022/01/27 02:04:13;;;;;;;46.33;20.57;;;4.10;99.90;;;;;;5061075;28;20270;-65
2022/01/27 02:06:48;;;;;;;44.50;20.43;;;4.10;99.90;;;;;;5056097;28;20184;-65
2022/01/27 02:09:26;;;;;;;47.67;19.80;;;4.10;99.90;;;;;;5055965;28;20620;-66
2022/01/27 02:20:15;;;;;;;43.27;18.23;;;4.20;99.90;;;;;;5054179;28;20181;-65
2022/01/27 02:22:43;;;;;;;42.47;18.57;;;4.30;99.90;;;;;;5057558;28;20223;-66
2022/01/27 02:25:12;;;;;;;39.13;17.90;;;4.40;99.90;;;;;;5057879;28;20200;-65
2022/01/27 02:27:41;;;;;;;37.33;16.83;;;4.50;99.90;;;;;;5065658;28;20215;-65
2022/01/27 02:30:09;;;;;;;34.17;17.23;;;4.60;99.90;;;;;;5060138;28;20269;-65
2022/01/27 02:32:38;;;;;;;39.50;18.00;;;4.70;99.90;;;;;;5067130;28;20279;-65
2022/01/27 02:35:07;;;;;;;40.03;18.70;;;4.60;99.90;;;;;;5055983;28;20719;-65
2022/01/27 02:37:37;;;;;;;41.43;18.73;;;4.60;99.90;;;;;;5065076;28;20227;-65
2022/01/27 02:40:07;;;;;;;41.77;17.90;;;4.50;99.90;;;;;;5061970;28;20240;-65
2022/01/27 02:42:37;;;;;;;44.07;18.97;;;4.60;99.90;;;;;;5051097;28;20258;-65
2022/01/27 02:45:09;;;;;;;46.43;19.33;;;4.50;99.90;;;;;;5041508;28;20254;-65
2022/01/27 02:47:38;;;;;;;43.83;20.30;;;4.50;99.90;;;;;;5055511;28;20267;-65
2022/01/27 02:50:09;;;;;;;42.07;18.67;;;4.50;99.90;;;;;;5060507;28;20691;-65
2022/01/27 02:52:39;;;;;;;45.03;19.40;;;4.50;99.90;;;;;;5058817;28;20196;-65
2022/01/27 02:55:09;;;;;;;41.37;19.13;;;4.40;99.90;;;;;;5058423;28;20239;-65
2022/01/27 02:57:37;;;;;;;43.03;20.07;;;4.30;99.90;;;;;;5064389;28;20730;-65
2022/01/27 03:00:07;;;;;;;43.50;19.03;;;4.30;99.90;;;;;;5061209;28;20584;-65
2022/01/27 03:02:36;;;;;;;46.60;19.87;;;4.10;99.90;;;;;;5056191;28;20208;-65
2022/01/27 03:05:06;;;;;;;45.67;20.30;;;4.10;99.90;;;;;;5054756;28;20291;-65
2022/01/27 03:07:34;;;;;;;48.00;19.93;;;4.00;99.90;;;;;;5058289;28;20188;-65
2022/01/27 03:10:05;;;;;;;54.63;19.93;;;4.00;99.90;;;;;;5065001;28;20227;-65
2022/01/27 03:12:37;;;;;;;52.13;21.63;;;4.00;99.90;;;;;;5059579;28;20196;-65
2022/01/27 03:15:11;;;;;;;62.07;21.87;;;3.90;99.90;;;;;;5055534;28;20188;-65
2022/01/27 03:17:40;;;;;;;45.43;20.03;;;3.90;99.90;;;;;;5059425;28;20215;-65
2022/01/27 03:20:10;;;;;;;55.97;20.83;;;3.90;99.90;;;;;;5065653;28;20196;-65
2022/01/27 03:22:38;;;;;;;51.33;20.63;;;4.00;99.90;;;;;;5060578;28;20204;-65
2022/01/27 03:25:09;;;;;;;54.97;21.97;;;4.00;99.90;;;;;;5061957;28;20200;-65
2022/01/27 03:27:44;;;;;;;46.73;20.13;;;4.10;99.90;;;;;;5051165;28;20255;-65
2022/01/27 03:30:13;;;;;;;52.27;21.07;;;4.10;99.90;;;;;;5052219;28;20661;-64
2022/01/27 03:32:42;;;;;;;49.53;20.63;;;4.20;99.90;;;;;;5051227;28;20200;-65
2022/01/27 03:35:10;;;;;;;47.33;21.17;;;4.10;99.90;;;;;;5058030;28;20228;-64
2022/01/27 03:37:39;;;;;;;51.27;20.67;;;4.20;99.90;;;;;;5060382;28;20196;-65
2022/01/27 03:40:10;;;;;;;56.00;21.13;;;4.20;99.90;;;;;;5059354;28;20250;-65
2022/01/27 03:42:45;;;;;;;48.37;20.27;;;4.20;99.90;;;;;;5058864;28;20665;-65
2022/01/27 03:45:15;;;;;;;49.57;21.10;;;4.20;99.90;;;;;;5062167;28;20230;-64
2022/01/27 03:47:44;;;;;;;54.47;22.40;;;4.20;99.90;;;;;;5063114;28;20204;-65
2022/01/27 03:50:12;;;;;;;55.10;22.50;;;4.20;99.90;;;;;;5051706;28;20206;-65
2022/01/27 03:52:41;;;;;;;53.20;22.90;;;4.10;99.90;;;;;;5053880;28;20196;-65
2022/01/27 03:55:11;;;;;;;52.60;21.23;;;4.00;99.90;;;;;;5060629;28;20271;-65
2022/01/27 03:57:39;;;;;;;55.70;22.00;;;3.90;99.90;;;;;;5059858;28;20228;-65
2022/01/27 04:00:09;;;;;;;58.67;22.73;;;3.80;99.90;;;;;;5061639;28;20192;-65
2022/01/27 04:02:48;;;;;;;54.67;22.00;;;3.90;99.90;;;;;;5067160;28;20278;-65
2022/01/27 04:05:18;;;;;;;58.93;21.60;;;3.80;99.90;;;;;;5064571;28;20275;-65
2022/01/27 04:07:47;;;;;;;61.53;23.57;;;3.80;99.90;;;;;;5056532;28;20208;-65
2022/01/27 04:10:16;;;;;;;60.93;24.10;;;3.80;99.90;;;;;;5055096;28;20240;-65
2022/01/27 04:12:45;;;;;;;57.50;22.37;;;3.80;99.90;;;;;;5062328;28;20193;-65
2022/01/27 04:15:13;;;;;;;58.70;23.63;;;3.80;99.90;;;;;;5058804;28;20200;-65
2022/01/27 04:17:42;;;;;;;53.70;23.43;;;3.80;99.90;;;;;;5058297;28;20645;-65
2022/01/27 04:20:11;;;;;;;60.97;24.10;;;3.70;99.90;;;;;;5053592;28;20188;-65
2022/01/27 04:22:39;;;;;;;61.77;22.70;;;3.70;99.90;;;;;;5064077;28;20275;-65
2022/01/27 04:25:08;;;;;;;60.67;24.00;;;3.70;99.90;;;;;;5060336;28;20199;-65
2022/01/27 04:27:41;;;;;;;56.83;23.00;;;3.60;99.90;;;;;;5067660;28;20249;-65
2022/01/27 04:30:15;;;;;;;65.27;24.47;;;3.50;99.90;;;;;;5061759;28;20213;-65
2022/01/27 04:32:49;;;;;;;63.17;24.43;;;3.50;99.90;;;;;;5062583;28;20224;-65
2022/01/27 04:35:20;;;;;;;62.83;24.03;;;3.50;99.90;;;;;;5062704;28;20261;-65
2022/01/27 04:38:00;;;;;;;59.23;23.53;;;3.50;99.90;;;;;;5063135;28;20299;-65
2022/01/27 04:40:34;;;;;;;63.47;24.30;;;3.50;99.90;;;;;;5061305;28;20232;-65
2022/01/27 04:43:10;;;;;;;64.90;24.93;;;3.50;99.90;;;;;;5059037;28;20278;-65
2022/01/27 04:45:46;;;;;;;60.57;23.73;;;3.50;99.90;;;;;;5057675;28;20223;-65
2022/01/27 04:48:18;;;;;;;65.73;24.67;;;3.50;99.90;;;;;;5052840;28;20224;-65
2022/01/27 04:50:46;;;;;;;63.87;23.50;;;3.50;99.90;;;;;;5059130;28;20681;-65
2022/01/27 04:53:20;;;;;;;63.03;24.57;;;3.50;99.90;;;;;;5067394;28;20245;-65
2022/01/27 04:56:11;;;;;;;64.30;25.20;;;3.50;99.90;;;;;;5060107;28;20215;-65
2022/01/27 04:58:44;;;;;;;67.30;25.77;;;3.40;99.90;;;;;;5058835;28;20271;-64
2022/01/27 05:01:15;;;;;;;63.43;24.53;;;3.40;99.90;;;;;;5056818;28;20275;-65
2022/01/27 05:03:48;;;;;;;63.10;25.50;;;3.50;99.90;;;;;;5063921;28;20188;-65
2022/01/27 05:06:17;;;;;;;63.70;25.57;;;3.40;99.90;;;;;;5059919;28;20658;-65
2022/01/27 05:08:45;;;;;;;66.10;24.57;;;3.40;99.90;;;;;;5057910;28;20188;-65
2022/01/27 05:11:19;;;;;;;77.37;26.50;;;3.40;99.90;;;;;;5060907;28;20246;-65
2022/01/27 05:13:54;;;;;;;71.80;26.20;;;3.40;99.90;;;;;;5063203;28;20226;-65
2022/01/27 05:16:22;;;;;;;72.37;26.53;;;3.40;99.90;;;;;;5069074;28;20703;-65
2022/01/27 05:18:51;;;;;;;68.90;25.03;;;3.40;99.90;;;;;;5059999;28;20287;-65
2022/01/27 05:21:19;;;;;;;69.93;26.90;;;3.40;99.90;;;;;;5064655;28;20212;-65
2022/01/27 05:23:47;;;;;;;71.47;26.40;;;3.40;99.90;;;;;;5062641;28;20189;-65
2022/01/27 05:26:16;;;;;;;74.77;26.60;;;3.40;99.90;;;;;;5060788;28;20709;-65
2022/01/27 05:28:45;;;;;;;67.53;25.97;;;3.40;99.90;;;;;;5050492;28;20217;-65
2022/01/27 05:31:14;;;;;;;69.90;27.00;;;3.40;99.90;;;;;;5061577;28;20257;-65
2022/01/27 05:33:43;;;;;;;70.07;27.07;;;3.40;99.90;;;;;;5068690;28;20649;-65
2022/01/27 05:36:11;;;;;;;71.07;27.27;;;3.40;99.90;;;;;;5062522;28;20601;-65
2022/01/27 05:38:40;;;;;;;72.30;27.13;;;3.40;99.90;;;;;;5063007;28;20696;-64
2022/01/27 05:41:09;;;;;;;74.80;27.33;;;3.40;99.90;;;;;;5060959;28;20259;-64
2022/01/27 05:43:37;;;;;;;78.93;28.30;;;3.40;99.90;;;;;;5059800;28;20291;-65
2022/01/27 05:46:05;;;;;;;76.57;27.63;;;3.40;99.90;;;;;;5058107;28;20208;-64
2022/01/27 05:48:36;;;;;;;73.27;27.47;;;3.30;99.90;;;;;;5057668;28;20245;-65
2022/01/27 05:51:05;;;;;;;74.57;27.53;;;3.40;99.90;;;;;;5042809;28;20216;-65
2022/01/27 05:53:35;;;;;;;79.30;27.97;;;3.40;99.90;;;;;;5046217;28;20210;-65
2022/01/27 05:56:04;;;;;;;75.07;27.70;;;3.40;99.90;;;;;;5062089;28;20196;-65
2022/01/27 05:58:33;;;;;;;73.03;27.53;;;3.40;99.90;;;;;;5051459;28;20656;-65
2022/01/27 06:01:01;;;;;;;77.57;28.30;;;3.40;99.90;;;;;;5056894;28;20220;-65
2022/01/27 06:03:30;;;;;;;82.87;28.97;;;3.50;99.90;;;;;;5062154;28;20215;-65
2022/01/27 06:05:59;;;;;;;79.70;29.93;;;3.60;99.90;;;;;;5054852;28;20690;-65
2022/01/27 06:08:29;;;;;;;77.70;29.37;;;3.70;99.90;;;;;;5060261;28;20188;-66
2022/01/27 06:10:58;;;;;;;71.80;27.33;;;3.80;99.90;;;;;;5039965;28;20214;-65
2022/01/27 06:13:28;;;;;;;81.90;29.13;;;3.90;99.90;;;;;;5060982;28;20200;-66
2022/01/27 06:15:56;;;;;;;78.30;28.77;;;3.90;99.90;;;;;;5058365;28;20196;-65
2022/01/27 06:18:25;;;;;;;73.07;27.37;;;4.00;99.90;;;;;;5056825;28;20228;-65
2022/01/27 06:20:55;;;;;;;73.73;27.10;;;4.00;99.90;;;;;;5055563;28;20227;-65
2022/01/27 06:23:24;;;;;;;75.40;28.53;;;4.10;99.90;;;;;;5061759;28;20307;-65
2022/01/27 06:25:53;;;;;;;66.90;27.80;;;4.20;99.90;;;;;;5060574;28;20242;-66
2022/01/27 06:28:21;;;;;;;67.40;26.33;;;4.20;99.90;;;;;;5058361;28;20229;-65
2022/01/27 06:30:49;;;;;;;69.83;27.93;;;4.20;99.90;;;;;;5059392;28;20295;-65
2022/01/27 06:33:18;;;;;;;66.00;27.60;;;4.30;99.90;;;;;;5053797;28;20200;-65
2022/01/27 06:35:46;;;;;;;65.47;26.23;;;4.30;99.90;;;;;;5052870;28;20204;-65
2022/01/27 06:38:17;;;;;;;64.10;27.00;;;4.40;99.90;;;;;;5067400;28;20685;-65
2022/01/27 06:40:47;;;;;;;65.57;26.13;;;4.40;99.90;;;;;;5062030;28;20267;-65
2022/01/27 06:43:16;;;;;;;65.77;26.37;;;4.50;99.90;;;;;;5059001;28;20667;-65
2022/01/27 06:45:44;;;;;;;64.10;26.27;;;4.50;99.90;;;;;;5052596;28;20227;-66
2022/01/27 06:48:13;;;;;;;60.83;24.90;;;4.50;99.90;;;;;;5058229;28;20627;-65
2022/01/27 06:50:41;;;;;;;63.53;25.77;;;4.60;99.90;;;;;;5057581;28;20212;-65
2022/01/27 06:53:09;;;;;;;66.90;26.77;;;4.60;99.90;;;;;;5060242;28;20331;-65
2022/01/27 06:55:39;;;;;;;69.43;26.47;;;4.60;99.90;;;;;;5057456;28;20204;-66
2022/01/27 06:58:08;;;;;;;59.03;25.00;;;4.70;99.90;;;;;;5064445;28;20260;-65
2022/01/27 07:00:36;;;;;;;62.97;23.57;;;4.70;99.90;;;;;;5055823;28;20220;-65
2022/01/27 07:03:05;;;;;;;62.73;25.83;;;4.70;99.90;;;;;;5060941;28;20266;-65
2022/01/27 07:05:35;;;;;;;63.13;24.60;;;4.70;99.90;;;;;;5057560;28;20546;-65
2022/01/27 07:08:03;;;;;;;55.70;22.90;;;4.80;99.90;;;;;;5055388;28;20278;-66
2022/01/27 07:10:37;;;;;;;56.47;23.53;;;4.80;99.90;;;;;;5058902;28;20681;-65
2022/01/27 07:13:06;;;;;;;55.40;22.23;;;5.00;99.90;;;;;;5063125;28;20200;-65
2022/01/27 07:15:36;;;;;;;53.60;21.23;;;5.10;99.90;;;;;;5063332;28;20192;-65
2022/01/27 07:18:05;;;;;;;48.73;19.77;;;5.20;99.90;;;;;;5061848;28;20322;-65
2022/01/27 07:20:33;;;;;;;56.13;21.50;;;5.30;99.90;;;;;;5055501;28;20203;-65
2022/01/27 07:23:02;;;;;;;46.10;19.20;;;5.40;99.90;;;;;;5061628;28;20261;-65
2022/01/27 07:25:31;;;;;;;46.73;20.40;;;5.50;99.90;;;;;;5058692;28;20212;-65
2022/01/27 07:27:59;;;;;;;44.47;19.37;;;5.50;99.90;;;;;;5061185;28;20203;-65
2022/01/27 07:30:28;;;;;;;50.70;20.60;;;5.50;99.90;;;;;;5060647;28;20265;-65
2022/01/27 07:32:58;;;;;;;49.57;19.87;;;5.50;99.90;;;;;;5062768;28;20258;-66
2022/01/27 07:35:26;;;;;;;43.60;19.87;;;5.50;99.90;;;;;;5060340;28;20227;-66
2022/01/27 07:37:58;;;;;;;47.23;19.37;;;5.50;99.90;;;;;;5057064;28;20279;-65
2022/01/27 07:40:27;;;;;;;44.00;19.30;;;5.50;99.90;;;;;;5061985;28;20238;-65
2022/01/27 07:43:14;;;;;;;45.20;19.70;;;5.50;99.90;;;;;;5059740;28;20250;-65
2022/01/27 07:45:43;;;;;;;43.90;19.03;;;5.60;99.90;;;;;;5059318;28;20220;-66
2022/01/27 07:48:13;;;;;;;45.53;19.27;;;5.70;99.90;;;;;;5058024;28;20204;-66
2022/01/27 07:50:41;;;;;;;43.40;18.83;;;5.70;99.90;;;;;;5065639;28;20219;-66
2022/01/27 07:53:10;;;;;;;46.03;18.93;;;5.60;99.90;;;;;;5062993;28;20200;-66
2022/01/27 07:55:38;;;;;;;47.57;19.80;;;5.70;99.90;;;;;;5068681;28;20200;-65
2022/01/27 07:58:07;;;;;;;44.50;19.83;;;5.70;99.90;;;;;;5058598;28;20259;-66
2022/01/27 08:00:36;;;;;;;50.60;20.70;;;5.70;99.90;;;;;;5057323;28;20685;-65
2022/01/27 08:03:05;;;;;;;47.00;20.33;;;5.80;99.90;;;;;;5055247;28;20203;-65
2022/01/27 08:05:35;;;;;;;49.77;20.70;;;5.80;99.90;;;;;;5059522;28;20192;-66
2022/01/27 08:08:04;;;;;;;50.63;20.77;;;5.90;99.90;;;;;;5058035;28;20196;-65
2022/01/27 08:10:37;;;;;;;55.20;24.73;;;5.90;99.90;;;;;;5057356;28;20243;-65
2022/01/27 08:13:09;;;;;;;59.90;25.00;;;6.00;99.90;;;;;;5057602;28;20207;-65
2022/01/27 08:15:37;;;;;;;50.07;21.23;;;5.90;99.90;;;;;;5058943;28;20234;-66
2022/01/27 08:18:06;;;;;;;45.77;20.90;;;5.90;99.90;;;;;;5062765;28;20184;-65
2022/01/27 08:20:37;;;;;;;56.07;26.90;;;6.00;99.90;;;;;;5056918;28;20216;-65
2022/01/27 08:23:06;;;;;;;59.43;28.10;;;6.00;99.90;;;;;;5058113;28;20198;-66
2022/01/27 08:25:35;;;;;;;56.80;23.67;;;6.10;99.90;;;;;;5065469;28;20276;-66
2022/01/27 08:28:07;;;;;;;50.57;20.87;;;6.10;99.90;;;;;;5059134;28;20196;-66
2022/01/27 08:30:42;;;;;;;43.30;19.43;;;6.10;99.90;;;;;;5059491;28;20192;-65
2022/01/27 08:33:16;;;;;;;45.67;19.50;;;6.20;99.90;;;;;;5060292;28;20201;-65
2022/01/27 08:35:46;;;;;;;48.80;21.17;;;6.20;99.90;;;;;;5059268;28;20197;-65
2022/01/27 08:38:15;;;;;;;47.67;19.97;;;6.30;99.90;;;;;;5058629;28;20253;-65
2022/01/27 08:40:43;;;;;;;45.27;19.90;;;6.30;99.90;;;;;;5062184;28;20223;-65
2022/01/27 08:43:12;;;;;;;47.80;19.90;;;6.30;99.90;;;;;;5063028;28;20212;-65
2022/01/27 08:45:42;;;;;;;43.53;19.67;;;6.30;99.90;;;;;;5061705;28;20234;-65
2022/01/27 08:48:13;;;;;;;44.97;19.77;;;6.40;99.90;;;;;;5061396;28;20215;-65
2022/01/27 08:50:48;;;;;;;43.23;19.03;;;6.40;99.90;;;;;;5058068;28;20196;-65
2022/01/27 08:53:41;;;;;;;41.43;18.90;;;6.40;99.90;;;;;;5057706;28;20205;-65
2022/01/27 08:56:13;;;;;;;45.37;18.80;;;6.50;99.90;;;;;;5062328;28;20203;-65
2022/01/27 08:58:41;;;;;;;42.93;18.57;;;6.50;99.90;;;;;;5056594;28;20676;-65
2022/01/27 09:01:10;;;;;;;44.53;19.97;;;6.60;99.90;;;;;;5057761;28;20193;-65
2022/01/27 09:03:39;;;;;;;44.27;18.10;;;6.60;99.90;;;;;;5060451;28;20211;-65
2022/01/27 09:06:08;;;;;;;41.77;18.43;;;6.60;99.90;;;;;;5059232;28;20223;-66
2022/01/27 09:08:43;;;;;;;44.33;18.97;;;6.60;99.90;;;;;;5052785;28;20661;-65
2022/01/27 09:11:12;;;;;;;43.10;18.37;;;6.70;99.90;;;;;;5062087;28;20611;-65
2022/01/27 09:13:41;;;;;;;44.70;19.50;;;6.70;99.90;;;;;;5063646;28;20205;-65
2022/01/27 09:16:11;;;;;;;48.77;19.00;;;6.80;99.90;;;;;;5059712;28;20665;-65
2022/01/27 09:18:40;;;;;;;45.87;18.93;;;6.90;99.90;;;;;;5057469;28;20253;-65
2022/01/27 09:21:12;;;;;;;42.70;19.57;;;6.90;99.90;;;;;;5063206;28;20249;-66
2022/01/27 09:23:41;;;;;;;51.37;20.27;;;6.90;99.90;;;;;;5061955;28;20234;-65
2022/01/27 09:26:37;;;;;;;44.00;19.17;;;6.80;99.90;;;;;;5063228;28;20224;-65
2022/01/27 09:28:59;;;;;;;41.53;18.07;;;6.80;99.90;;;;;;5059274;28;20279;-65
2022/01/27 09:31:28;;;;;;;46.53;19.33;;;6.80;99.90;;;;;;5060631;28;20709;-66
2022/01/27 09:33:56;;;;;;;41.73;17.67;;;6.80;99.90;;;;;;5058930;28;20982;-65
2022/01/27 09:36:25;;;;;;;42.60;19.33;;;6.90;99.90;;;;;;5063429;28;20227;-66
2022/01/27 09:38:53;;;;;;;42.67;19.27;;;6.90;99.90;;;;;;5060590;28;20203;-65
2022/01/27 09:41:27;;;;;;;41.07;18.33;;;6.90;99.90;;;;;;5060852;28;20224;-65
2022/01/27 09:43:56;;;;;;;43.97;21.47;;;6.90;99.90;;;;;;5060483;28;20596;-66
2022/01/27 09:46:26;;;;;;;52.67;22.60;;;7.00;99.90;;;;;;5061654;28;20209;-65
2022/01/27 09:48:55;;;;;;;54.70;23.50;;;7.10;99.90;;;;;;5056310;28;20188;-66
2022/01/27 09:51:38;;;;;;;50.90;23.23;;;7.20;99.90;;;;;;5039288;28;20228;-65
2022/01/27 09:54:08;;;;;;;40.97;17.53;;;7.20;99.90;;;;;;5061585;28;20223;-66
2022/01/27 09:56:40;;;;;;;42.97;18.50;;;7.20;99.90;;;;;;5054300;28;20192;-65
2022/01/27 09:59:09;;;;;;;37.33;17.13;;;7.20;99.90;;;;;;5054671;28;20239;-66
2022/01/27 10:01:39;;;;;;;42.50;17.83;;;7.20;99.90;;;;;;5056096;28;20689;-65
2022/01/27 10:04:09;;;;;;;40.23;18.03;;;7.20;99.90;;;;;;5058318;28;20239;-66
2022/01/27 10:06:37;;;;;;;42.97;18.57;;;7.10;99.90;;;;;;5055337;28;20192;-66
2022/01/27 10:09:19;;;;;;;42.70;19.77;;;7.10;99.90;;;;;;5061044;28;20283;-66
2022/01/27 10:11:50;;;;;;;53.57;21.27;;;7.10;99.90;;;;;;5058200;28;20222;-66
2022/01/27 10:14:22;;;;;;;58.40;26.73;;;7.10;99.90;;;;;;5055843;28;20677;-66
2022/01/27 10:16:53;;;;;;;41.50;18.27;;;7.10;99.90;;;;;;5063365;28;20669;-66
2022/01/27 10:19:22;;;;;;;40.73;18.97;;;7.20;99.90;;;;;;5055657;28;20196;-66
2022/01/27 10:21:51;;;;;;;47.40;18.60;;;7.20;99.90;;;;;;5059737;28;20679;-66
2022/01/27 10:24:24;;;;;;;41.43;17.03;;;7.20;99.90;;;;;;5057381;28;20223;-66
2022/01/27 10:27:17;;;;;;;44.57;16.97;;;7.30;99.90;;;;;;5051249;28;20677;-66
2022/01/27 10:30:03;;;;;;;44.80;17.20;;;7.30;99.90;;;;;;5054442;28;20265;-66
2022/01/27 10:32:41;;;;;;;53.90;24.93;;;7.30;99.90;;;;;;5057568;28;20240;-66
2022/01/27 10:35:11;;;;;;;43.97;17.13;;;7.40;99.90;;;;;;5057400;28;20196;-66
2022/01/27 10:37:53;;;;;;;43.17;18.23;;;7.40;99.90;;;;;;5059983;28;20280;-66
2022/01/27 10:40:23;;;;;;;41.53;16.13;;;7.40;99.90;;;;;;5060957;28;20581;-66
2022/01/27 10:43:09;;;;;;;37.50;16.33;;;7.40;99.90;;;;;;5056088;28;20649;-66
2022/01/27 10:45:42;;;;;;;37.50;18.60;;;7.50;99.90;;;;;;5037428;28;20249;-66
2022/01/27 10:48:21;;;;;;;35.57;15.90;;;7.50;99.90;;;;;;5057119;28;20212;-66
2022/01/27 10:50:56;;;;;;;35.30;17.00;;;7.50;99.90;;;;;;5057070;28;20208;-66
2022/01/27 10:53:48;;;;;;;39.33;15.60;;;7.60;99.90;;;;;;5058048;28;20272;-66
2022/01/27 10:56:21;;;;;;;33.27;14.67;;;7.60;99.90;;;;;;5056788;28;20285;-67
2022/01/27 10:58:51;;;;;;;35.60;14.83;;;7.60;99.90;;;;;;5055670;28;20253;-67
2022/01/27 11:01:25;;;;;;;28.87;14.47;;;7.70;99.90;;;;;;5061031;28;20242;-67
2022/01/27 11:03:56;;;;;;;31.87;13.90;;;7.70;99.90;;;;;;5058358;28;20261;-67
2022/01/27 11:06:27;;;;;;;33.90;14.27;;;7.80;99.90;;;;;;5056785;28;20212;-67
2022/01/27 11:08:59;;;;;;;27.67;12.83;;;7.80;99.90;;;;;;5054627;28;20286;-67
2022/01/27 11:11:28;;;;;;;28.63;13.00;;;7.80;99.90;;;;;;5059709;28;20269;-66
2022/01/27 11:13:59;;;;;;;25.20;13.00;;;7.80;99.90;;;;;;5060180;28;20611;-66
2022/01/27 11:16:36;;;;;;;26.23;12.67;;;7.80;99.90;;;;;;5057795;28;20199;-67
2022/01/27 11:22:02;;;;;;;34.17;13.07;;;7.80;99.90;;;;;;5054964;28;20208;-66
2022/01/27 11:24:55;;;;;;;28.47;12.13;;;7.80;99.90;;;;;;5056681;28;20196;-66
2022/01/27 11:27:24;;;;;;;25.33;12.17;;;7.80;99.90;;;;;;5056959;28;20698;-67
2022/01/27 11:30:04;;;;;;;24.87;10.90;;;7.80;99.90;;;;;;5053505;28;20196;-67
2022/01/27 11:32:36;;;;;;;23.83;11.50;;;7.80;99.90;;;;;;5060336;28;20223;-67
2022/01/27 11:35:18;;;;;;;29.67;11.70;;;7.80;99.90;;;;;;5057030;28;20654;-67
2022/01/27 11:37:51;;;;;;;27.97;11.53;;;7.80;99.90;;;;;;5061198;28;20254;-67
2022/01/27 11:40:20;;;;;;;24.60;10.13;;;7.90;99.90;;;;;;5061869;28;20227;-67
2022/01/27 11:43:07;;;;;;;25.33;10.67;;;7.90;99.90;;;;;;5053327;28;20550;-67
2022/01/27 11:45:39;;;;;;;19.73;10.10;;;7.90;99.90;;;;;;5056537;28;20188;-67
2022/01/27 11:48:11;;;;;;;20.07;10.07;;;7.90;99.90;;;;;;5062232;28;20208;-67
2022/01/27 11:50:51;;;;;;;22.03;9.83;;;8.00;99.90;;;;;;5052207;28;20200;-67
2022/01/27 11:53:34;;;;;;;20.87;9.00;;;8.00;99.90;;;;;;5061307;28;20562;-67
2022/01/27 11:56:05;;;;;;;21.63;8.93;;;8.10;99.90;;;;;;5059731;28;20211;-67
2022/01/27 11:58:44;;;;;;;19.13;9.33;;;8.10;99.90;;;;;;5055034;28;20200;-67
2022/01/27 12:01:21;;;;;;;19.07;8.97;;;8.10;99.90;;;;;;5057150;28;20273;-67
2022/01/27 12:04:11;;;;;;;17.40;9.37;;;8.20;99.90;;;;;;5053888;28;20231;-67
2022/01/27 12:06:42;;;;;;;17.53;8.90;;;8.30;99.90;;;;;;5055962;28;20287;-67
2022/01/27 12:09:31;;;;;;;16.37;8.17;;;8.30;99.90;;;;;;5053807;28;20654;-67
2022/01/27 12:12:02;;;;;;;16.83;9.30;;;8.30;99.90;;;;;;5057698;28;20196;-67
2022/01/27 12:15:08;;;;;;;18.33;8.50;;;8.30;99.90;;;;;;5058164;28;20228;-67
2022/01/27 12:17:38;;;;;;;15.77;8.87;;;8.40;99.90;;;;;;5052224;28;20227;-67
2022/01/27 12:20:10;;;;;;;18.40;8.30;;;8.40;99.90;;;;;;5054490;28;20275;-66
2022/01/27 12:23:05;;;;;;;15.03;8.93;;;8.30;99.90;;;;;;5064265;28;20254;-67
2022/01/27 12:25:46;;;;;;;14.30;7.73;;;8.40;99.90;;;;;;5050412;28;20188;-66
2022/01/27 12:28:14;;;;;;;21.57;9.13;;;8.40;99.90;;;;;;5058499;28;20200;-67
2022/01/27 12:30:56;;;;;;;15.27;8.47;;;8.50;99.90;;;;;;5056615;28;20201;-67
2022/01/27 12:33:26;;;;;;;18.63;9.13;;;8.50;99.90;;;;;;5062460;28;20251;-67
2022/01/27 12:35:58;;;;;;;17.53;9.33;;;8.50;99.90;;;;;;5060255;28;20250;-68
2022/01/27 12:38:26;;;;;;;16.27;8.93;;;8.60;99.90;;;;;;5061176;28;20199;-68
2022/01/27 12:40:58;;;;;;;17.57;9.20;;;8.60;99.90;;;;;;5061154;28;20223;-67
2022/01/27 12:43:27;;;;;;;18.07;8.93;;;8.60;99.90;;;;;;5059392;28;20283;-67
2022/01/27 12:46:00;;;;;;;20.23;8.73;;;8.60;99.90;;;;;;5078706;28;20204;-67
2022/01/27 12:48:30;;;;;;;17.87;8.57;;;8.60;99.90;;;;;;5066798;28;20219;-68
2022/01/27 12:51:02;;;;;;;17.23;8.40;;;8.60;99.90;;;;;;5063399;28;20196;-67
2022/01/27 12:53:33;;;;;;;12.80;8.53;;;8.50;99.90;;;;;;5062400;28;20238;-68
2022/01/27 12:56:08;;;;;;;13.57;8.60;;;8.50;99.90;;;;;;5060935;28;20195;-67
2022/01/27 12:58:38;;;;;;;17.00;8.87;;;8.50;99.90;;;;;;5056970;28;20270;-67
2022/01/27 13:01:07;;;;;;;16.80;9.27;;;8.50;99.90;;;;;;5059484;28;20283;-67
2022/01/27 13:03:37;;;;;;;15.37;8.50;;;8.60;99.90;;;;;;5064108;28;20247;-67
2022/01/27 13:06:06;;;;;;;13.50;9.00;;;8.50;99.90;;;;;;5062111;28;20192;-68
2022/01/27 13:08:41;;;;;;;15.37;9.33;;;8.50;99.90;;;;;;5065607;28;20603;-67
2022/01/27 13:11:15;;;;;;;18.43;8.93;;;8.60;99.90;;;;;;5063138;28;20201;-68
2022/01/27 13:13:46;;;;;;;19.23;8.80;;;8.60;99.90;;;;;;5063212;28;20219;-67
2022/01/27 13:16:20;;;;;;;15.13;8.90;;;8.60;99.90;;;;;;5054120;28;20624;-67
2022/01/27 13:19:04;;;;;;;16.67;9.00;;;8.60;99.90;;;;;;5062294;28;20349;-67
2022/01/27 13:21:36;;;;;;;15.93;9.20;;;8.60;99.90;;;;;;5060816;28;20771;-67
2022/01/27 13:24:08;;;;;;;18.40;10.07;;;8.70;99.90;;;;;;5060899;28;20192;-67
2022/01/27 13:26:37;;;;;;;16.70;9.43;;;8.70;99.90;;;;;;5055050;28;20606;-69
2022/01/27 13:29:05;;;;;;;19.20;9.77;;;8.70;99.90;;;;;;5059626;28;20652;-67